sensor_id;sensor_type;location;lat;lon;timestamp;P1;durP1;ratioP1;P2;durP2;ratioP2
13943;SDS011;7044;53.286;8.534;2024-02-23T00:02:12;0.30;;;0.30;;
13943;SDS011;7044;53.286;8.534;2024-02-23T00:04:39;0.70;;;0.40;;
13943;SDS011;7044;53.286;8.534;2024-02-23T00:07:06;0.40;;;0.40;;
13943;SDS011;7044;53.286;8.534;2024-02-23T00:09:35;0.40;;;0.30;;
13943;SDS011;7044;53.286;8.534;2024-02-23T00:12:02;0.20;;;0.20;;
13943;SDS011;7044;53.286;8.534;2024-02-23T00:14:29;0.47;;;0.23;;
13943;SDS011;7044;53.286;8.534;2024-02-23T00:16:56;2.13;;;0.30;;
13943;SDS011;7044;53.286;8.534;2024-02-23T00:19:24;0.53;;;0.20;;
13943;SDS011;7044;53.286;8.534;2024-02-23T00:21:50;0.50;;;0.27;;
13943;SDS011;7044;53.286;8.534;2024-02-23T00:24:18;0.53;;;0.30;;
13943;SDS011;7044;53.286;8.534;2024-02-23T00:26:47;0.30;;;0.30;;
13943;SDS011;7044;53.286;8.534;2024-02-23T00:29:15;0.30;;;0.30;;
13943;SDS011;7044;53.286;8.534;2024-02-23T00:31:42;0.10;;;0.10;;
13943;SDS011;7044;53.286;8.534;2024-02-23T00:34:10;0.20;;;0.20;;
13943;SDS011;7044;53.286;8.534;2024-02-23T00:36:38;0.20;;;0.20;;
13943;SDS011;7044;53.286;8.534;2024-02-23T00:39:05;0.10;;;0.10;;
13943;SDS011;7044;53.286;8.534;2024-02-23T00:41:33;0.27;;;0.20;;
13943;SDS011;7044;53.286;8.534;2024-02-23T00:44:01;0.23;;;0.20;;
13943;SDS011;7044;53.286;8.534;2024-02-23T00:46:28;0.20;;;0.20;;
13943;SDS011;7044;53.286;8.534;2024-02-23T00:48:54;0.10;;;0.10;;
13943;SDS011;7044;53.286;8.534;2024-02-23T00:51:20;0.77;;;0.53;;
13943;SDS011;7044;53.286;8.534;2024-02-23T00:53:47;0.10;;;0.10;;
13943;SDS011;7044;53.286;8.534;2024-02-23T00:56:14;0.47;;;0.20;;
13943;SDS011;7044;53.286;8.534;2024-02-23T00:58:41;0.17;;;0.17;;
13943;SDS011;7044;53.286;8.534;2024-02-23T01:01:09;0.10;;;0.10;;
13943;SDS011;7044;53.286;8.534;2024-02-23T01:03:36;0.10;;;0.10;;
13943;SDS011;7044;53.286;8.534;2024-02-23T01:06:03;0.13;;;0.13;;
13943;SDS011;7044;53.286;8.534;2024-02-23T01:08:30;0.10;;;0.10;;
13943;SDS011;7044;53.286;8.534;2024-02-23T01:10:57;0.20;;;0.20;;
13943;SDS011;7044;53.286;8.534;2024-02-23T01:13:24;0.40;;;0.10;;
13943;SDS011;7044;53.286;8.534;2024-02-23T01:15:51;4.83;;;0.57;;
13943;SDS011;7044;53.286;8.534;2024-02-23T01:18:20;0.10;;;0.10;;
13943;SDS011;7044;53.286;8.534;2024-02-23T01:20:47;0.10;;;0.10;;
13943;SDS011;7044;53.286;8.534;2024-02-23T01:23:14;0.57;;;0.30;;
13943;SDS011;7044;53.286;8.534;2024-02-23T01:25:40;0.67;;;0.30;;
13943;SDS011;7044;53.286;8.534;2024-02-23T01:28:07;1.23;;;0.30;;
13943;SDS011;7044;53.286;8.534;2024-02-23T01:30:34;0.20;;;0.20;;
13943;SDS011;7044;53.286;8.534;2024-02-23T01:33:01;0.30;;;0.30;;
13943;SDS011;7044;53.286;8.534;2024-02-23T01:35:30;1.20;;;0.20;;
13943;SDS011;7044;53.286;8.534;2024-02-23T01:37:57;0.30;;;0.30;;
13943;SDS011;7044;53.286;8.534;2024-02-23T01:40:23;0.30;;;0.20;;
13943;SDS011;7044;53.286;8.534;2024-02-23T01:43:00;0.10;;;0.10;;
13943;SDS011;7044;53.286;8.534;2024-02-23T01:45:28;0.40;;;0.30;;
13943;SDS011;7044;53.286;8.534;2024-02-23T01:47:56;1.33;;;0.40;;
13943;SDS011;7044;53.286;8.534;2024-02-23T01:50:23;0.30;;;0.20;;
13943;SDS011;7044;53.286;8.534;2024-02-23T01:52:51;0.43;;;0.20;;
13943;SDS011;7044;53.286;8.534;2024-02-23T01:55:19;0.53;;;0.27;;
13943;SDS011;7044;53.286;8.534;2024-02-23T01:57:47;0.57;;;0.40;;
13943;SDS011;7044;53.286;8.534;2024-02-23T02:00:15;0.30;;;0.30;;
13943;SDS011;7044;53.286;8.534;2024-02-23T02:02:44;1.67;;;0.50;;
13943;SDS011;7044;53.286;8.534;2024-02-23T02:05:11;0.60;;;0.43;;
13943;SDS011;7044;53.286;8.534;2024-02-23T02:07:39;1.27;;;0.40;;
13943;SDS011;7044;53.286;8.534;2024-02-23T02:10:08;0.30;;;0.30;;
13943;SDS011;7044;53.286;8.534;2024-02-23T02:12:36;1.03;;;0.30;;
13943;SDS011;7044;53.286;8.534;2024-02-23T02:15:03;0.33;;;0.33;;
13943;SDS011;7044;53.286;8.534;2024-02-23T02:17:31;0.23;;;0.23;;
13943;SDS011;7044;53.286;8.534;2024-02-23T02:19:58;0.20;;;0.20;;
13943;SDS011;7044;53.286;8.534;2024-02-23T02:22:29;0.20;;;0.20;;
13943;SDS011;7044;53.286;8.534;2024-02-23T02:24:57;0.20;;;0.20;;
13943;SDS011;7044;53.286;8.534;2024-02-23T02:27:26;0.30;;;0.30;;
13943;SDS011;7044;53.286;8.534;2024-02-23T02:29:53;1.10;;;0.37;;
13943;SDS011;7044;53.286;8.534;2024-02-23T02:32:20;0.30;;;0.30;;
13943;SDS011;7044;53.286;8.534;2024-02-23T02:34:46;2.57;;;0.53;;
13943;SDS011;7044;53.286;8.534;2024-02-23T02:37:13;1.13;;;0.40;;
13943;SDS011;7044;53.286;8.534;2024-02-23T02:39:40;0.33;;;0.33;;
13943;SDS011;7044;53.286;8.534;2024-02-23T02:42:07;1.30;;;0.47;;
13943;SDS011;7044;53.286;8.534;2024-02-23T02:44:36;0.37;;;0.37;;
13943;SDS011;7044;53.286;8.534;2024-02-23T02:47:03;4.63;;;0.50;;
13943;SDS011;7044;53.286;8.534;2024-02-23T02:49:30;0.30;;;0.30;;
13943;SDS011;7044;53.286;8.534;2024-02-23T02:51:56;0.40;;;0.30;;
13943;SDS011;7044;53.286;8.534;2024-02-23T02:54:23;0.83;;;0.20;;
13943;SDS011;7044;53.286;8.534;2024-02-23T02:56:50;0.20;;;0.20;;
13943;SDS011;7044;53.286;8.534;2024-02-23T02:59:19;0.27;;;0.27;;
13943;SDS011;7044;53.286;8.534;2024-02-23T03:01:47;0.10;;;0.10;;
13943;SDS011;7044;53.286;8.534;2024-02-23T03:04:14;1.23;;;0.20;;
13943;SDS011;7044;53.286;8.534;2024-02-23T03:06:41;0.10;;;0.10;;
13943;SDS011;7044;53.286;8.534;2024-02-23T03:09:08;0.40;;;0.40;;
13943;SDS011;7044;53.286;8.534;2024-02-23T03:11:35;1.13;;;0.30;;
13943;SDS011;7044;53.286;8.534;2024-02-23T03:14:02;1.40;;;0.20;;
13943;SDS011;7044;53.286;8.534;2024-02-23T03:16:29;0.83;;;0.40;;
13943;SDS011;7044;53.286;8.534;2024-02-23T03:18:58;0.30;;;0.30;;
13943;SDS011;7044;53.286;8.534;2024-02-23T03:21:24;0.40;;;0.40;;
13943;SDS011;7044;53.286;8.534;2024-02-23T03:23:51;0.70;;;0.50;;
13943;SDS011;7044;53.286;8.534;2024-02-23T03:26:18;2.30;;;0.60;;
13943;SDS011;7044;53.286;8.534;2024-02-23T03:28:45;1.13;;;0.50;;
13943;SDS011;7044;53.286;8.534;2024-02-23T03:31:13;1.63;;;0.50;;
13943;SDS011;7044;53.286;8.534;2024-02-23T03:33:40;1.30;;;0.60;;
13943;SDS011;7044;53.286;8.534;2024-02-23T03:36:08;4.20;;;1.10;;
13943;SDS011;7044;53.286;8.534;2024-02-23T03:38:35;2.87;;;1.20;;
13943;SDS011;7044;53.286;8.534;2024-02-23T03:41:02;3.30;;;1.20;;
13943;SDS011;7044;53.286;8.534;2024-02-23T03:43:30;4.60;;;0.90;;
13943;SDS011;7044;53.286;8.534;2024-02-23T03:45:56;2.83;;;0.90;;
13943;SDS011;7044;53.286;8.534;2024-02-23T03:48:23;5.90;;;1.10;;
13943;SDS011;7044;53.286;8.534;2024-02-23T03:50:50;1.37;;;0.67;;
13943;SDS011;7044;53.286;8.534;2024-02-23T03:53:20;3.17;;;1.10;;
13943;SDS011;7044;53.286;8.534;2024-02-23T03:55:47;0.60;;;0.60;;
13943;SDS011;7044;53.286;8.534;2024-02-23T03:58:14;3.13;;;1.13;;
13943;SDS011;7044;53.286;8.534;2024-02-23T04:00:43;4.13;;;1.73;;
13943;SDS011;7044;53.286;8.534;2024-02-23T04:03:10;1.93;;;1.30;;
13943;SDS011;7044;53.286;8.534;2024-02-23T04:05:36;7.83;;;1.83;;
13943;SDS011;7044;53.286;8.534;2024-02-23T04:08:04;5.13;;;2.03;;
13943;SDS011;7044;53.286;8.534;2024-02-23T04:10:32;5.27;;;1.87;;
13943;SDS011;7044;53.286;8.534;2024-02-23T04:12:59;2.57;;;1.27;;
13943;SDS011;7044;53.286;8.534;2024-02-23T04:15:27;4.53;;;1.67;;
13943;SDS011;7044;53.286;8.534;2024-02-23T04:17:54;4.53;;;1.57;;
13943;SDS011;7044;53.286;8.534;2024-02-23T04:20:21;2.53;;;1.50;;
13943;SDS011;7044;53.286;8.534;2024-02-23T04:22:48;4.87;;;1.67;;
13943;SDS011;7044;53.286;8.534;2024-02-23T04:25:15;4.07;;;1.63;;
13943;SDS011;7044;53.286;8.534;2024-02-23T04:27:43;2.70;;;2.00;;
13943;SDS011;7044;53.286;8.534;2024-02-23T04:30:10;2.13;;;1.70;;
13943;SDS011;7044;53.286;8.534;2024-02-23T04:32:38;1.60;;;1.30;;
13943;SDS011;7044;53.286;8.534;2024-02-23T04:35:05;2.77;;;1.50;;
13943;SDS011;7044;53.286;8.534;2024-02-23T04:37:33;2.03;;;1.23;;
13943;SDS011;7044;53.286;8.534;2024-02-23T04:39:59;1.80;;;1.20;;
13943;SDS011;7044;53.286;8.534;2024-02-23T04:42:26;2.87;;;0.93;;
13943;SDS011;7044;53.286;8.534;2024-02-23T04:44:55;1.73;;;0.90;;
13943;SDS011;7044;53.286;8.534;2024-02-23T04:47:22;1.83;;;0.63;;
13943;SDS011;7044;53.286;8.534;2024-02-23T04:49:49;0.90;;;0.70;;
13943;SDS011;7044;53.286;8.534;2024-02-23T04:52:15;1.50;;;0.73;;
13943;SDS011;7044;53.286;8.534;2024-02-23T04:54:42;1.53;;;0.77;;
13943;SDS011;7044;53.286;8.534;2024-02-23T04:57:09;1.90;;;0.77;;
13943;SDS011;7044;53.286;8.534;2024-02-23T04:59:36;5.13;;;0.80;;
13943;SDS011;7044;53.286;8.534;2024-02-23T05:02:04;0.50;;;0.50;;
13943;SDS011;7044;53.286;8.534;2024-02-23T05:04:31;0.63;;;0.63;;
13943;SDS011;7044;53.286;8.534;2024-02-23T05:06:58;2.03;;;0.80;;
13943;SDS011;7044;53.286;8.534;2024-02-23T05:09:26;6.10;;;1.27;;
13943;SDS011;7044;53.286;8.534;2024-02-23T05:11:54;0.70;;;0.70;;
13943;SDS011;7044;53.286;8.534;2024-02-23T05:14:21;3.43;;;0.80;;
13943;SDS011;7044;53.286;8.534;2024-02-23T05:16:48;1.00;;;0.90;;
13943;SDS011;7044;53.286;8.534;2024-02-23T05:19:15;2.63;;;1.20;;
13943;SDS011;7044;53.286;8.534;2024-02-23T05:21:42;3.57;;;0.70;;
13943;SDS011;7044;53.286;8.534;2024-02-23T05:24:10;1.97;;;0.90;;
13943;SDS011;7044;53.286;8.534;2024-02-23T05:26:37;1.03;;;1.00;;
13943;SDS011;7044;53.286;8.534;2024-02-23T05:29:04;4.10;;;1.30;;
13943;SDS011;7044;53.286;8.534;2024-02-23T05:31:45;1.50;;;1.10;;
13943;SDS011;7044;53.286;8.534;2024-02-23T05:34:14;4.73;;;1.47;;
13943;SDS011;7044;53.286;8.534;2024-02-23T05:36:42;2.77;;;1.30;;
13943;SDS011;7044;53.286;8.534;2024-02-23T05:39:09;3.33;;;1.50;;
13943;SDS011;7044;53.286;8.534;2024-02-23T05:41:36;3.60;;;1.50;;
13943;SDS011;7044;53.286;8.534;2024-02-23T05:44:03;3.03;;;2.00;;
13943;SDS011;7044;53.286;8.534;2024-02-23T05:46:31;2.30;;;1.57;;
13943;SDS011;7044;53.286;8.534;2024-02-23T05:48:58;2.23;;;1.67;;
13943;SDS011;7044;53.286;8.534;2024-02-23T05:51:27;3.33;;;1.63;;
13943;SDS011;7044;53.286;8.534;2024-02-23T05:53:55;2.60;;;1.90;;
13943;SDS011;7044;53.286;8.534;2024-02-23T05:56:22;8.10;;;2.37;;
13943;SDS011;7044;53.286;8.534;2024-02-23T05:58:49;5.13;;;1.93;;
13943;SDS011;7044;53.286;8.534;2024-02-23T06:01:17;7.77;;;1.97;;
13943;SDS011;7044;53.286;8.534;2024-02-23T06:03:44;2.60;;;1.63;;
13943;SDS011;7044;53.286;8.534;2024-02-23T06:06:11;4.53;;;1.87;;
13943;SDS011;7044;53.286;8.534;2024-02-23T06:08:39;4.90;;;2.00;;
13943;SDS011;7044;53.286;8.534;2024-02-23T06:11:06;2.07;;;1.57;;
13943;SDS011;7044;53.286;8.534;2024-02-23T06:13:35;2.67;;;1.70;;
13943;SDS011;7044;53.286;8.534;2024-02-23T06:16:02;3.93;;;2.13;;
13943;SDS011;7044;53.286;8.534;2024-02-23T06:18:29;2.37;;;1.90;;
13943;SDS011;7044;53.286;8.534;2024-02-23T06:20:56;2.07;;;1.60;;
13943;SDS011;7044;53.286;8.534;2024-02-23T06:23:23;4.97;;;2.10;;
13943;SDS011;7044;53.286;8.534;2024-02-23T06:25:51;3.30;;;2.53;;
13943;SDS011;7044;53.286;8.534;2024-02-23T06:28:18;4.60;;;2.17;;
13943;SDS011;7044;53.286;8.534;2024-02-23T06:30:45;4.50;;;2.03;;
13943;SDS011;7044;53.286;8.534;2024-02-23T06:33:12;2.53;;;1.73;;
13943;SDS011;7044;53.286;8.534;2024-02-23T06:35:38;2.73;;;1.63;;
13943;SDS011;7044;53.286;8.534;2024-02-23T06:38:05;3.40;;;1.60;;
13943;SDS011;7044;53.286;8.534;2024-02-23T06:40:32;3.03;;;1.90;;
13943;SDS011;7044;53.286;8.534;2024-02-23T06:43:00;7.33;;;2.30;;
13943;SDS011;7044;53.286;8.534;2024-02-23T06:45:27;5.50;;;2.20;;
13943;SDS011;7044;53.286;8.534;2024-02-23T06:47:54;2.47;;;1.90;;
13943;SDS011;7044;53.286;8.534;2024-02-23T06:50:21;3.50;;;2.00;;
13943;SDS011;7044;53.286;8.534;2024-02-23T06:52:48;4.37;;;2.40;;
13943;SDS011;7044;53.286;8.534;2024-02-23T06:55:15;3.37;;;2.20;;
13943;SDS011;7044;53.286;8.534;2024-02-23T06:57:42;7.33;;;2.60;;
13943;SDS011;7044;53.286;8.534;2024-02-23T07:00:11;3.67;;;2.70;;
13943;SDS011;7044;53.286;8.534;2024-02-23T07:02:39;5.03;;;3.03;;
13943;SDS011;7044;53.286;8.534;2024-02-23T07:05:05;3.63;;;2.10;;
13943;SDS011;7044;53.286;8.534;2024-02-23T07:07:33;6.30;;;2.53;;
13943;SDS011;7044;53.286;8.534;2024-02-23T07:10:01;4.87;;;2.00;;
13943;SDS011;7044;53.286;8.534;2024-02-23T07:12:28;3.47;;;2.40;;
13943;SDS011;7044;53.286;8.534;2024-02-23T07:14:55;5.93;;;2.30;;
13943;SDS011;7044;53.286;8.534;2024-02-23T07:17:24;9.37;;;2.00;;
13943;SDS011;7044;53.286;8.534;2024-02-23T07:19:51;3.23;;;2.00;;
13943;SDS011;7044;53.286;8.534;2024-02-23T07:22:18;3.93;;;2.00;;
13943;SDS011;7044;53.286;8.534;2024-02-23T07:24:45;2.63;;;1.80;;
13943;SDS011;7044;53.286;8.534;2024-02-23T07:27:12;3.60;;;1.70;;
13943;SDS011;7044;53.286;8.534;2024-02-23T07:29:39;4.73;;;1.63;;
13943;SDS011;7044;53.286;8.534;2024-02-23T07:32:06;3.77;;;1.50;;
13943;SDS011;7044;53.286;8.534;2024-02-23T07:34:34;2.33;;;1.50;;
13943;SDS011;7044;53.286;8.534;2024-02-23T07:37:01;5.53;;;1.80;;
13943;SDS011;7044;53.286;8.534;2024-02-23T07:39:29;3.10;;;1.53;;
13943;SDS011;7044;53.286;8.534;2024-02-23T07:41:56;5.07;;;2.07;;
13943;SDS011;7044;53.286;8.534;2024-02-23T07:44:22;3.90;;;1.83;;
13943;SDS011;7044;53.286;8.534;2024-02-23T07:46:50;5.33;;;1.90;;
13943;SDS011;7044;53.286;8.534;2024-02-23T07:49:17;5.37;;;1.73;;
13943;SDS011;7044;53.286;8.534;2024-02-23T07:51:46;5.13;;;2.00;;
13943;SDS011;7044;53.286;8.534;2024-02-23T07:54:13;3.80;;;1.40;;
13943;SDS011;7044;53.286;8.534;2024-02-23T07:56:40;1.60;;;1.50;;
13943;SDS011;7044;53.286;8.534;2024-02-23T07:59:07;2.90;;;1.70;;
13943;SDS011;7044;53.286;8.534;2024-02-23T08:01:34;4.00;;;1.90;;
13943;SDS011;7044;53.286;8.534;2024-02-23T08:04:01;2.57;;;1.67;;
13943;SDS011;7044;53.286;8.534;2024-02-23T08:06:28;2.93;;;1.73;;
13943;SDS011;7044;53.286;8.534;2024-02-23T08:08:56;4.33;;;1.33;;
13943;SDS011;7044;53.286;8.534;2024-02-23T08:11:23;4.70;;;1.87;;
13943;SDS011;7044;53.286;8.534;2024-02-23T08:13:50;3.03;;;1.60;;
13943;SDS011;7044;53.286;8.534;2024-02-23T08:16:17;3.47;;;1.63;;
13943;SDS011;7044;53.286;8.534;2024-02-23T08:18:44;3.70;;;1.57;;
13943;SDS011;7044;53.286;8.534;2024-02-23T08:21:10;4.70;;;1.60;;
13943;SDS011;7044;53.286;8.534;2024-02-23T08:23:37;5.00;;;1.93;;
13943;SDS011;7044;53.286;8.534;2024-02-23T08:26:06;7.00;;;2.27;;
13943;SDS011;7044;53.286;8.534;2024-02-23T08:28:35;4.80;;;1.80;;
13943;SDS011;7044;53.286;8.534;2024-02-23T08:31:02;6.37;;;2.90;;
13943;SDS011;7044;53.286;8.534;2024-02-23T08:33:29;6.83;;;2.50;;
13943;SDS011;7044;53.286;8.534;2024-02-23T08:35:57;5.83;;;1.97;;
13943;SDS011;7044;53.286;8.534;2024-02-23T08:38:23;6.80;;;2.10;;
13943;SDS011;7044;53.286;8.534;2024-02-23T08:40:50;5.80;;;2.10;;
13943;SDS011;7044;53.286;8.534;2024-02-23T08:43:19;3.93;;;1.67;;
13943;SDS011;7044;53.286;8.534;2024-02-23T08:45:46;7.73;;;1.80;;
13943;SDS011;7044;53.286;8.534;2024-02-23T08:48:13;3.90;;;1.50;;
13943;SDS011;7044;53.286;8.534;2024-02-23T08:50:41;6.43;;;1.83;;
13943;SDS011;7044;53.286;8.534;2024-02-23T08:53:08;3.63;;;1.50;;
13943;SDS011;7044;53.286;8.534;2024-02-23T08:55:34;6.50;;;1.83;;
13943;SDS011;7044;53.286;8.534;2024-02-23T08:58:01;2.57;;;1.47;;
13943;SDS011;7044;53.286;8.534;2024-02-23T09:00:32;6.27;;;1.53;;
13943;SDS011;7044;53.286;8.534;2024-02-23T09:02:59;9.33;;;1.80;;
13943;SDS011;7044;53.286;8.534;2024-02-23T09:05:26;4.80;;;1.77;;
13943;SDS011;7044;53.286;8.534;2024-02-23T09:07:52;3.23;;;1.27;;
13943;SDS011;7044;53.286;8.534;2024-02-23T09:10:20;4.40;;;1.63;;
13943;SDS011;7044;53.286;8.534;2024-02-23T09:12:47;5.37;;;1.50;;
13943;SDS011;7044;53.286;8.534;2024-02-23T09:15:14;2.00;;;1.03;;
13943;SDS011;7044;53.286;8.534;2024-02-23T09:17:42;6.43;;;1.20;;
13943;SDS011;7044;53.286;8.534;2024-02-23T09:20:09;8.33;;;1.40;;
13943;SDS011;7044;53.286;8.534;2024-02-23T09:22:37;5.33;;;1.43;;
13943;SDS011;7044;53.286;8.534;2024-02-23T09:25:05;4.83;;;1.50;;
13943;SDS011;7044;53.286;8.534;2024-02-23T09:27:33;7.73;;;1.30;;
13943;SDS011;7044;53.286;8.534;2024-02-23T09:30:01;2.73;;;1.10;;
13943;SDS011;7044;53.286;8.534;2024-02-23T09:32:29;6.37;;;1.53;;
13943;SDS011;7044;53.286;8.534;2024-02-23T09:34:57;3.20;;;1.17;;
13943;SDS011;7044;53.286;8.534;2024-02-23T09:37:24;3.67;;;1.20;;
13943;SDS011;7044;53.286;8.534;2024-02-23T09:39:51;1.83;;;0.93;;
13943;SDS011;7044;53.286;8.534;2024-02-23T09:42:17;6.27;;;1.13;;
13943;SDS011;7044;53.286;8.534;2024-02-23T09:44:48;4.63;;;1.00;;
13943;SDS011;7044;53.286;8.534;2024-02-23T09:47:20;1.40;;;0.80;;
13943;SDS011;7044;53.286;8.534;2024-02-23T09:49:46;2.00;;;0.80;;
13943;SDS011;7044;53.286;8.534;2024-02-23T09:52:17;4.60;;;1.40;;
13943;SDS011;7044;53.286;8.534;2024-02-23T09:54:46;1.70;;;0.80;;
13943;SDS011;7044;53.286;8.534;2024-02-23T09:57:13;3.97;;;1.20;;
13943;SDS011;7044;53.286;8.534;2024-02-23T09:59:42;4.60;;;1.50;;
13943;SDS011;7044;53.286;8.534;2024-02-23T10:02:09;1.83;;;0.70;;
13943;SDS011;7044;53.286;8.534;2024-02-23T10:04:40;1.00;;;0.70;;
13943;SDS011;7044;53.286;8.534;2024-02-23T10:07:08;2.73;;;1.00;;
13943;SDS011;7044;53.286;8.534;2024-02-23T10:09:37;3.63;;;1.00;;
13943;SDS011;7044;53.286;8.534;2024-02-23T10:12:05;2.23;;;0.73;;
13943;SDS011;7044;53.286;8.534;2024-02-23T10:14:33;2.40;;;0.70;;
13943;SDS011;7044;53.286;8.534;2024-02-23T10:17:00;3.50;;;1.00;;
13943;SDS011;7044;53.286;8.534;2024-02-23T10:19:27;2.23;;;0.83;;
13943;SDS011;7044;53.286;8.534;2024-02-23T10:21:55;1.43;;;0.60;;
13943;SDS011;7044;53.286;8.534;2024-02-23T10:24:23;1.97;;;0.93;;
13943;SDS011;7044;53.286;8.534;2024-02-23T10:26:52;2.90;;;0.90;;
13943;SDS011;7044;53.286;8.534;2024-02-23T10:29:18;4.83;;;1.17;;
13943;SDS011;7044;53.286;8.534;2024-02-23T10:31:46;2.87;;;1.03;;
13943;SDS011;7044;53.286;8.534;2024-02-23T10:34:15;3.00;;;1.17;;
13943;SDS011;7044;53.286;8.534;2024-02-23T10:36:45;3.47;;;0.93;;
13943;SDS011;7044;53.286;8.534;2024-02-23T10:39:15;2.63;;;0.87;;
13943;SDS011;7044;53.286;8.534;2024-02-23T10:41:44;8.13;;;1.13;;
13943;SDS011;7044;53.286;8.534;2024-02-23T10:44:16;2.90;;;0.87;;
13943;SDS011;7044;53.286;8.534;2024-02-23T10:46:44;1.90;;;0.87;;
13943;SDS011;7044;53.286;8.534;2024-02-23T10:49:12;2.40;;;1.00;;
13943;SDS011;7044;53.286;8.534;2024-02-23T10:51:42;3.65;;;1.23;;
13943;SDS011;7044;53.286;8.534;2024-02-23T10:54:12;3.13;;;1.33;;
13943;SDS011;7044;53.286;8.534;2024-02-23T10:56:40;6.90;;;1.73;;
13943;SDS011;7044;53.286;8.534;2024-02-23T10:59:07;2.13;;;0.90;;
13943;SDS011;7044;53.286;8.534;2024-02-23T11:01:36;7.43;;;1.40;;
13943;SDS011;7044;53.286;8.534;2024-02-23T11:04:04;4.00;;;1.30;;
13943;SDS011;7044;53.286;8.534;2024-02-23T11:06:33;2.83;;;1.30;;
13943;SDS011;7044;53.286;8.534;2024-02-23T11:09:11;1.70;;;1.03;;
13943;SDS011;7044;53.286;8.534;2024-02-23T11:11:39;1.47;;;0.90;;
13943;SDS011;7044;53.286;8.534;2024-02-23T11:14:07;2.30;;;1.43;;
13943;SDS011;7044;53.286;8.534;2024-02-23T11:16:39;3.47;;;0.90;;
13943;SDS011;7044;53.286;8.534;2024-02-23T11:19:09;1.60;;;1.27;;
13943;SDS011;7044;53.286;8.534;2024-02-23T11:21:36;4.13;;;1.33;;
13943;SDS011;7044;53.286;8.534;2024-02-23T11:24:04;3.97;;;1.33;;
13943;SDS011;7044;53.286;8.534;2024-02-23T11:26:32;2.57;;;1.07;;
13943;SDS011;7044;53.286;8.534;2024-02-23T11:29:09;6.63;;;1.30;;
13943;SDS011;7044;53.286;8.534;2024-02-23T11:31:36;1.23;;;1.10;;
13943;SDS011;7044;53.286;8.534;2024-02-23T11:34:12;6.27;;;1.00;;
13943;SDS011;7044;53.286;8.534;2024-02-23T11:36:39;3.20;;;1.00;;
13943;SDS011;7044;53.286;8.534;2024-02-23T11:39:06;5.43;;;1.30;;
13943;SDS011;7044;53.286;8.534;2024-02-23T11:41:36;1.83;;;1.23;;
13943;SDS011;7044;53.286;8.534;2024-02-23T11:44:04;2.80;;;1.20;;
13943;SDS011;7044;53.286;8.534;2024-02-23T11:46:32;3.40;;;1.43;;
13943;SDS011;7044;53.286;8.534;2024-02-23T11:49:00;2.70;;;1.57;;
13943;SDS011;7044;53.286;8.534;2024-02-23T11:51:27;4.73;;;1.20;;
13943;SDS011;7044;53.286;8.534;2024-02-23T11:53:56;2.00;;;1.13;;
13943;SDS011;7044;53.286;8.534;2024-02-23T11:56:25;2.70;;;1.10;;
13943;SDS011;7044;53.286;8.534;2024-02-23T11:58:53;1.40;;;1.20;;
13943;SDS011;7044;53.286;8.534;2024-02-23T12:01:20;1.50;;;1.30;;
13943;SDS011;7044;53.286;8.534;2024-02-23T12:03:47;3.90;;;1.38;;
13943;SDS011;7044;53.286;8.534;2024-02-23T12:06:15;2.30;;;1.07;;
13943;SDS011;7044;53.286;8.534;2024-02-23T12:08:43;3.43;;;1.20;;
13943;SDS011;7044;53.286;8.534;2024-02-23T12:11:11;3.23;;;1.30;;
13943;SDS011;7044;53.286;8.534;2024-02-23T12:13:39;2.88;;;1.25;;
13943;SDS011;7044;53.286;8.534;2024-02-23T12:16:06;2.90;;;1.20;;
13943;SDS011;7044;53.286;8.534;2024-02-23T12:18:34;3.43;;;1.50;;
13943;SDS011;7044;53.286;8.534;2024-02-23T12:21:01;2.50;;;1.30;;
13943;SDS011;7044;53.286;8.534;2024-02-23T12:23:38;2.13;;;1.20;;
13943;SDS011;7044;53.286;8.534;2024-02-23T12:26:06;1.40;;;1.10;;
13943;SDS011;7044;53.286;8.534;2024-02-23T12:28:33;2.57;;;1.43;;
13943;SDS011;7044;53.286;8.534;2024-02-23T12:31:00;1.58;;;1.40;;
13943;SDS011;7044;53.286;8.534;2024-02-23T12:33:28;3.63;;;1.33;;
13943;SDS011;7044;53.286;8.534;2024-02-23T12:35:55;5.87;;;1.17;;
13943;SDS011;7044;53.286;8.534;2024-02-23T12:38:22;4.40;;;1.10;;
13943;SDS011;7044;53.286;8.534;2024-02-23T12:40:51;1.50;;;0.90;;
13943;SDS011;7044;53.286;8.534;2024-02-23T12:43:18;3.63;;;1.00;;
13943;SDS011;7044;53.286;8.534;2024-02-23T12:45:46;2.30;;;1.00;;
13943;SDS011;7044;53.286;8.534;2024-02-23T12:48:15;1.77;;;1.10;;
13943;SDS011;7044;53.286;8.534;2024-02-23T12:50:42;4.20;;;1.70;;
13943;SDS011;7044;53.286;8.534;2024-02-23T12:53:09;1.80;;;1.30;;
13943;SDS011;7044;53.286;8.534;2024-02-23T12:55:57;6.22;;;1.15;;
13943;SDS011;7044;53.286;8.534;2024-02-23T12:58:24;3.50;;;1.47;;
13943;SDS011;7044;53.286;8.534;2024-02-23T13:00:51;3.23;;;1.40;;
13943;SDS011;7044;53.286;8.534;2024-02-23T13:03:18;1.43;;;1.07;;
13943;SDS011;7044;53.286;8.534;2024-02-23T13:05:45;3.00;;;1.30;;
13943;SDS011;7044;53.286;8.534;2024-02-23T13:08:12;4.35;;;1.10;;
13943;SDS011;7044;53.286;8.534;2024-02-23T13:10:38;2.47;;;1.25;;
13943;SDS011;7044;53.286;8.534;2024-02-23T13:13:07;3.97;;;1.10;;
13943;SDS011;7044;53.286;8.534;2024-02-23T13:15:34;1.83;;;1.10;;
13943;SDS011;7044;53.286;8.534;2024-02-23T13:18:02;3.28;;;1.23;;
13943;SDS011;7044;53.286;8.534;2024-02-23T13:20:29;3.47;;;1.40;;
13943;SDS011;7044;53.286;8.534;2024-02-23T13:22:56;1.57;;;1.10;;
13943;SDS011;7044;53.286;8.534;2024-02-23T13:25:23;3.25;;;1.20;;
13943;SDS011;7044;53.286;8.534;2024-02-23T13:27:50;10.45;;;1.58;;
13943;SDS011;7044;53.286;8.534;2024-02-23T13:30:19;4.10;;;1.10;;
13943;SDS011;7044;53.286;8.534;2024-02-23T13:32:46;5.70;;;1.05;;
13943;SDS011;7044;53.286;8.534;2024-02-23T13:35:13;3.17;;;1.20;;
13943;SDS011;7044;53.286;8.534;2024-02-23T13:37:40;6.82;;;1.38;;
13943;SDS011;7044;53.286;8.534;2024-02-23T13:40:08;1.20;;;1.05;;
13943;SDS011;7044;53.286;8.534;2024-02-23T13:42:36;1.80;;;1.13;;
13943;SDS011;7044;53.286;8.534;2024-02-23T13:45:04;5.97;;;1.45;;
13943;SDS011;7044;53.286;8.534;2024-02-23T13:47:34;2.83;;;1.52;;
13943;SDS011;7044;53.286;8.534;2024-02-23T13:50:01;2.70;;;1.23;;
13943;SDS011;7044;53.286;8.534;2024-02-23T13:52:28;2.40;;;1.23;;
13943;SDS011;7044;53.286;8.534;2024-02-23T13:54:55;1.30;;;1.13;;
13943;SDS011;7044;53.286;8.534;2024-02-23T13:57:22;2.55;;;1.20;;
13943;SDS011;7044;53.286;8.534;2024-02-23T13:59:49;1.40;;;0.77;;
13943;SDS011;7044;53.286;8.534;2024-02-23T14:02:16;2.55;;;1.20;;
13943;SDS011;7044;53.286;8.534;2024-02-23T14:04:51;1.17;;;1.08;;
13943;SDS011;7044;53.286;8.534;2024-02-23T14:07:19;3.20;;;1.50;;
13943;SDS011;7044;53.286;8.534;2024-02-23T14:09:46;1.20;;;1.10;;
13943;SDS011;7044;53.286;8.534;2024-02-23T14:12:13;4.13;;;1.52;;
13943;SDS011;7044;53.286;8.534;2024-02-23T14:14:40;4.63;;;1.15;;
13943;SDS011;7044;53.286;8.534;2024-02-23T14:17:07;0.88;;;0.88;;
13943;SDS011;7044;53.286;8.534;2024-02-23T14:19:33;2.03;;;1.10;;
13943;SDS011;7044;53.286;8.534;2024-02-23T14:22:02;2.33;;;1.40;;
13943;SDS011;7044;53.286;8.534;2024-02-23T14:24:29;2.93;;;1.20;;
13943;SDS011;7044;53.286;8.534;2024-02-23T14:26:56;3.15;;;1.33;;
13943;SDS011;7044;53.286;8.534;2024-02-23T14:29:23;6.15;;;1.50;;
13943;SDS011;7044;53.286;8.534;2024-02-23T14:31:49;2.15;;;1.08;;
13943;SDS011;7044;53.286;8.534;2024-02-23T14:34:16;2.35;;;1.05;;
13943;SDS011;7044;53.286;8.534;2024-02-23T14:36:45;4.50;;;1.10;;
13943;SDS011;7044;53.286;8.534;2024-02-23T14:39:13;4.07;;;1.08;;
13943;SDS011;7044;53.286;8.534;2024-02-23T14:41:40;2.23;;;1.23;;
13943;SDS011;7044;53.286;8.534;2024-02-23T14:44:07;2.20;;;1.00;;
13943;SDS011;7044;53.286;8.534;2024-02-23T14:46:34;1.90;;;1.13;;
13943;SDS011;7044;53.286;8.534;2024-02-23T14:49:01;1.20;;;0.90;;
13943;SDS011;7044;53.286;8.534;2024-02-23T14:51:29;5.00;;;1.25;;
13943;SDS011;7044;53.286;8.534;2024-02-23T14:53:55;4.77;;;1.10;;
13943;SDS011;7044;53.286;8.534;2024-02-23T14:56:24;3.08;;;0.95;;
13943;SDS011;7044;53.286;8.534;2024-02-23T14:58:51;1.43;;;0.90;;
13943;SDS011;7044;53.286;8.534;2024-02-23T15:01:17;1.57;;;0.93;;
13943;SDS011;7044;53.286;8.534;2024-02-23T15:03:44;5.13;;;1.15;;